Time;durP1;ratioP1;P1;durP2;ratioP2;P2;SDS_P1;SDS_P2;PMS_P1;PMS_P2;Temp;Humidity;BMP_temperature;BMP_pressure;BME280_temperature;BME280_humidity;BME280_pressure;Samples;Min_cycle;Max_cycle;Signal;HPM_P1;HPM_P2
2022/11/10 00:02:05;;;;;;;5.03;4.60;;;;;;;7.06;100.00;101635.34;5236391;28;20097;-91
2022/11/10 00:04:35;;;;;;;8.85;5.47;;;;;;;7.23;100.00;101657.97;5233058;28;20029;-90
2022/11/10 00:07:05;;;;;;;10.60;4.70;;;;;;;7.85;100.00;101769.28;5225327;28;20032;-90
2022/11/10 00:09:36;;;;;;;9.18;5.40;;;;;;;8.04;100.00;101807.88;5221821;28;20025;-90
2022/11/10 00:12:06;;;;;;;13.57;5.82;;;;;;;7.26;100.00;101681.72;5221226;28;20032;-90
2022/11/10 00:17:26;;;;;;;4.57;4.20;;;;;;;8.02;100.00;101810.78;5239166;28;20035;-90
2022/11/10 00:19:57;;;;;;;6.90;5.22;;;;;;;8.01;100.00;101792.19;5220648;28;20088;-90
2022/11/10 00:22:27;;;;;;;10.52;5.28;;;;;;;7.34;100.00;101691.41;5238980;28;20477;-90
2022/11/10 00:24:58;;;;;;;6.90;5.15;;;;;;;6.78;100.00;101620.38;5238478;28;20033;-90
2022/11/10 00:27:28;;;;;;;7.55;4.70;;;;;;;7.14;100.00;101670.03;5220931;28;20060;-88
2022/11/10 00:29:59;;;;;;;8.95;5.22;;;;;;;7.65;100.00;101764.03;5220022;28;20025;-89
2022/11/10 00:32:30;;;;;;;3.92;3.63;;;;;;;7.25;100.00;101720.38;5237658;28;20056;-91
2022/11/10 00:35:00;;;;;;;14.05;5.53;;;;;;;7.38;100.00;101736.44;5220556;28;20110;-90
2022/11/10 00:37:34;;;;;;;7.25;4.57;;;;;;;7.60;100.00;101779.16;5222126;28;20051;-91
2022/11/10 00:40:05;;;;;;;13.32;5.20;;;;;;;6.63;100.00;101641.28;5222072;28;20028;-91
2022/11/10 00:42:36;;;;;;;22.38;5.28;;;;;;;7.88;100.00;101836.09;5222878;28;20055;-90
2022/11/10 00:45:09;;;;;;;15.80;6.18;;;;;;;6.34;100.00;101588.94;5222497;28;20033;-89
2022/11/10 00:47:40;;;;;;;6.28;4.88;;;;;;;7.33;100.00;101738.94;5221921;28;20025;-90
2022/11/10 00:50:10;;;;;;;12.50;5.63;;;;;;;7.81;100.00;101856.81;5222009;28;20097;-89
2022/11/10 00:52:42;;;;;;;3.75;3.15;;;;;;;6.36;100.00;101623.59;5223083;28;20084;-90
2022/11/10 00:55:13;;;;;;;13.38;6.07;;;;;;;7.66;100.00;101814.06;5250791;23;20043;-68
2022/11/10 00:57:43;;;;;;;8.60;4.53;;;;;;;7.80;100.00;101837.16;5274724;28;20024;-68
2022/11/10 01:00:14;;;;;;;7.22;6.00;;;;;;;7.86;100.00;101840.03;5266643;28;20032;-67
2022/11/10 01:02:44;;;;;;;10.32;5.40;;;;;;;7.84;100.00;101840.25;5266230;28;20169;-67
2022/11/10 01:05:15;;;;;;;16.25;5.05;;;;;;;7.82;100.00;101834.25;5265883;28;20024;-68
2022/11/10 01:07:45;;;;;;;9.07;5.53;;;;;;;7.76;100.00;101837.81;5265956;28;20467;-66
2022/11/10 01:10:16;;;;;;;8.68;4.20;;;;;;;7.77;100.00;101839.47;5266362;28;20179;-68
2022/11/10 01:12:46;;;;;;;9.10;4.30;;;;;;;7.78;100.00;101833.06;5269957;28;20032;-68
2022/11/10 01:15:17;;;;;;;9.20;4.53;;;;;;;7.82;100.00;101838.81;5271602;28;20571;-68
2022/11/10 01:17:47;;;;;;;7.43;4.72;;;;;;;7.80;100.00;101841.69;5270322;28;20028;-68
2022/11/10 01:20:18;;;;;;;5.30;3.95;;;;;;;7.82;100.00;101845.00;5285514;22;20042;-81
2022/11/10 01:22:49;;;;;;;7.65;3.63;;;;;;;7.56;100.00;101816.38;5246155;28;20111;-84
2022/11/10 01:25:19;;;;;;;9.10;5.30;;;;;;;7.29;100.00;101791.44;5213721;28;20206;-84
2022/11/10 01:27:50;;;;;;;8.68;4.72;;;;;;;7.68;100.00;101859.56;5222001;28;20246;-83
2022/11/10 01:30:21;;;;;;;4.95;4.47;;;;;;;7.65;100.00;101862.66;5204708;28;20025;-82
2022/11/10 01:32:53;;;;;;;14.32;5.30;;;;;;;7.52;100.00;101868.91;5219813;28;20541;-82
2022/11/10 01:35:24;;;;;;;7.15;4.18;;;;;;;7.28;100.00;101846.22;5200541;28;20025;-84
2022/11/10 01:37:54;;;;;;;7.32;3.33;;;;;;;7.00;100.00;101814.25;5220148;28;20139;-83
2022/11/10 01:40:25;;;;;;;15.88;4.57;;;;;;;6.87;100.00;101781.25;5220153;28;20360;-81
2022/11/10 01:42:57;;;;;;;6.05;4.57;;;;;;;7.25;100.00;101849.31;5220621;28;20026;-83
2022/11/10 01:45:58;;;;;;;8.20;4.68;;;;;;;7.43;100.00;101879.06;5218657;28;20048;-82
2022/11/10 01:48:36;;;;;;;14.15;5.05;;;;;;;7.43;100.00;101870.19;5219226;28;20052;-82
2022/11/10 01:51:22;;;;;;;17.88;5.68;;;;;;;7.35;100.00;101854.28;5219708;28;20047;-81
2022/11/10 01:53:57;;;;;;;8.10;5.07;;;;;;;7.44;100.00;101875.34;5218617;28;20028;-83
2022/11/10 01:56:31;;;;;;;8.63;4.43;;;;;;;7.31;100.00;101861.09;5219917;28;20471;-80
2022/11/10 01:59:07;;;;;;;7.65;5.78;;;;;;;7.35;100.00;101876.59;5219939;28;20039;-82
2022/11/10 02:01:38;;;;;;;6.63;5.00;;;;;;;7.27;100.00;101887.56;5219667;28;20049;-83
2022/11/10 02:04:13;;;;;;;14.77;4.80;;;;;;;7.15;100.00;101872.31;5217805;28;20017;-83
2022/11/10 02:06:45;;;;;;;16.35;4.38;;;;;;;7.19;100.00;101882.41;5219277;28;20351;-85
2022/11/10 02:09:16;;;;;;;18.50;6.78;;;;;;;7.22;100.00;101886.56;5220198;28;20443;-82
2022/11/10 02:11:52;;;;;;;17.95;6.10;;;;;;;6.62;100.00;101795.31;5219409;28;20027;-80
2022/11/10 02:14:22;;;;;;;3.85;3.55;;;;;;;7.21;100.00;101884.91;5199834;28;20105;-85
2022/11/10 02:16:52;;;;;;;11.90;5.75;;;;;;;6.74;100.00;101804.38;5218829;28;20022;-81
2022/11/10 02:19:24;;;;;;;5.20;4.70;;;;;;;7.20;100.00;101884.06;5219081;28;20035;-81
2022/11/10 02:21:55;;;;;;;16.52;6.32;;;;;;;7.26;100.00;101891.28;5218538;28;20041;-84
2022/11/10 02:24:25;;;;;;;4.38;4.05;;;;;;;7.19;100.00;101878.91;5217767;28;20030;-83
2022/11/10 02:26:56;;;;;;;31.08;6.75;;;;;;;7.25;100.00;101903.06;5218592;28;20045;-83
2022/11/10 02:29:26;;;;;;;5.38;4.95;;;;;;;7.24;100.00;101904.09;5216646;28;20028;-84
2022/11/10 02:31:57;;;;;;;10.50;5.47;;;;;;;6.81;100.00;101819.66;5200769;28;20081;-84
2022/11/10 02:34:27;;;;;;;10.90;4.22;;;;;;;6.76;100.00;101825.63;5217242;28;20090;-83
2022/11/10 02:36:58;;;;;;;11.43;6.40;;;;;;;7.21;100.00;101903.72;5218710;28;20022;-82
2022/11/10 02:39:28;;;;;;;9.02;5.95;;;;;;;7.22;100.00;101900.78;5219003;28;20085;-82
2022/11/10 02:41:58;;;;;;;18.10;6.55;;;;;;;6.74;100.00;101838.44;5218703;28;20031;-84
2022/11/10 02:44:29;;;;;;;13.98;5.15;;;;;;;6.86;100.00;101835.97;5217182;28;20075;-81
2022/11/10 02:47:00;;;;;;;7.47;5.78;;;;;;;7.26;100.00;101903.88;5218799;28;20040;-84
2022/11/10 02:49:30;;;;;;;10.18;6.40;;;;;;;7.27;100.00;101903.69;5218432;28;20041;-83
2022/11/10 02:52:00;;;;;;;10.05;5.65;;;;;;;7.30;100.00;101908.63;5218746;28;20049;-82
2022/11/10 02:54:31;;;;;;;17.98;5.13;;;;;;;7.13;100.00;101899.38;5216672;28;20016;-83
2022/11/10 02:57:01;;;;;;;13.60;6.35;;;;;;;7.24;100.00;101930.13;5218190;28;20085;-81
2022/11/10 02:59:32;;;;;;;11.05;4.80;;;;;;;7.10;100.00;101910.53;5200438;28;20033;-81
2022/11/10 03:02:02;;;;;;;5.70;5.05;;;;;;;7.04;100.00;101925.59;5201676;28;20029;-83
2022/11/10 03:04:32;;;;;;;14.15;6.10;;;;;;;6.67;100.00;101848.34;5218460;28;20029;-81
2022/11/10 03:07:03;;;;;;;9.80;5.13;;;;;;;6.59;100.00;101854.75;5219274;28;20029;-84
2022/11/10 03:09:33;;;;;;;9.57;4.82;;;;;;;7.06;100.00;101936.13;5220519;28;20022;-82
2022/11/10 03:12:03;;;;;;;16.25;4.85;;;;;;;7.06;100.00;101949.56;5202005;28;20072;-83
2022/11/10 03:14:34;;;;;;;8.25;4.80;;;;;;;6.62;100.00;101894.59;5217452;28;20021;-81
2022/11/10 03:17:04;;;;;;;9.40;5.30;;;;;;;7.01;100.00;101954.72;5218997;28;20026;-82
2022/11/10 03:19:35;;;;;;;9.43;6.10;;;;;;;6.96;100.00;101958.03;5218496;28;20036;-84
2022/11/10 03:22:05;;;;;;;13.65;4.53;;;;;;;6.80;100.00;101933.44;5218367;28;20025;-82
2022/11/10 03:24:36;;;;;;;22.38;6.25;;;;;;;6.94;100.00;101964.63;5197693;28;20021;-82
2022/11/10 03:27:06;;;;;;;9.73;5.35;;;;;;;6.92;100.00;101969.41;5216575;28;20037;-82
2022/11/10 03:29:36;;;;;;;9.15;6.10;;;;;;;6.50;100.00;101912.31;5217688;28;20088;-83
2022/11/10 03:32:07;;;;;;;14.55;5.43;;;;;;;6.82;100.00;101968.97;5217894;28;20025;-81
2022/11/10 03:34:37;;;;;;;5.97;5.30;;;;;;;6.20;100.00;101881.50;5215793;28;20023;-83
2022/11/10 03:37:08;;;;;;;14.88;5.93;;;;;;;6.82;100.00;101993.13;5199918;28;20137;-84
2022/11/10 03:39:38;;;;;;;13.90;5.65;;;;;;;6.77;100.00;101986.50;5217146;28;20086;-84
2022/11/10 03:42:08;;;;;;;11.90;5.95;;;;;;;6.86;100.00;102003.25;5218012;28;20040;-82
2022/11/10 03:44:39;;;;;;;11.73;6.20;;;;;;;6.62;100.00;101960.88;5215865;28;20025;-85
2022/11/10 03:47:09;;;;;;;6.10;5.05;;;;;;;6.71;100.00;101981.13;5218095;28;20022;-83
2022/11/10 03:49:40;;;;;;;16.90;5.13;;;;;;;6.76;100.00;102011.69;5217369;28;20029;-84
2022/11/10 03:52:10;;;;;;;9.93;5.40;;;;;;;6.72;100.00;102015.81;5217125;28;20022;-84
2022/11/10 03:54:41;;;;;;;8.45;6.35;;;;;;;6.55;100.00;101997.59;5216867;28;20422;-83
2022/11/10 03:57:11;;;;;;;11.85;5.00;;;;;;;6.65;100.00;102008.75;5216598;28;20040;-82
2022/11/10 03:59:42;;;;;;;12.88;5.47;;;;;;;6.07;100.00;101923.31;5234186;28;20494;-85
2022/11/10 04:02:12;;;;;;;11.82;5.78;;;;;;;6.06;100.00;101913.63;5219748;28;20057;-85
2022/11/10 04:10:20;;;;;;;6.45;4.53;;;;;;;7.03;100.00;102027.84;5238209;28;20036;-84
2022/11/10 04:15:43;;;;;;;12.07;5.75;;;;;;;7.28;100.00;102030.78;5240239;28;20071;-85
2022/11/10 04:18:19;;;;;;;9.68;5.85;;;;;;;7.38;100.00;102037.41;5240631;28;20246;-83
2022/11/10 04:20:58;;;;;;;10.15;5.47;;;;;;;7.29;100.00;102017.16;5241440;28;20032;-83
2022/11/10 04:23:34;;;;;;;20.63;5.72;;;;;;;7.47;100.00;102039.91;5220678;28;20036;-84
2022/11/10 04:26:29;;;;;;;6.70;5.70;;;;;;;7.33;100.00;102034.50;5240878;28;20029;-84
2022/11/10 04:29:02;;;;;;;14.38;6.22;;;;;;;7.57;100.00;102034.91;5238214;28;20033;-83
2022/11/10 04:31:36;;;;;;;8.35;5.10;;;;;;;7.57;100.00;102041.13;5238905;28;20048;-82
2022/11/10 04:34:09;;;;;;;4.88;4.35;;;;;;;7.64;100.00;102055.41;5217635;28;20041;-84
2022/11/10 04:36:42;;;;;;;10.15;5.45;;;;;;;7.47;100.00;102034.53;5238380;28;20025;-84
2022/11/10 04:39:12;;;;;;;12.45;6.13;;;;;;;7.54;100.00;102056.84;5238197;28;20032;-84
2022/11/10 04:41:42;;;;;;;7.05;5.40;;;;;;;7.32;100.00;102035.53;5219980;28;20096;-83
2022/11/10 04:44:13;;;;;;;5.28;4.88;;;;;;;7.40;100.00;102070.28;5237125;28;20025;-81
2022/11/10 04:46:44;;;;;;;7.70;5.22;;;;;;;7.31;100.00;102063.44;5218943;28;20040;-85
2022/11/10 04:49:14;;;;;;;9.63;6.28;;;;;;;7.33;100.00;102084.75;5219870;28;20028;-85
2022/11/10 04:51:45;;;;;;;10.15;5.38;;;;;;;6.94;100.00;102021.00;5236915;28;20532;-84
2022/11/10 04:54:15;;;;;;;5.15;4.57;;;;;;;6.50;100.00;101963.31;5237105;28;20028;-85
2022/11/10 04:56:46;;;;;;;20.10;5.97;;;;;;;7.28;100.00;102112.22;5219983;28;20033;-84
2022/11/10 04:59:16;;;;;;;12.35;4.80;;;;;;;7.23;100.00;102093.19;5237329;28;20104;-83
2022/11/10 05:01:47;;;;;;;5.15;4.65;;;;;;;7.08;100.00;102071.88;5237762;28;20021;-86
2022/11/10 05:04:17;;;;;;;8.88;6.05;;;;;;;7.20;100.00;102098.16;5219302;28;20487;-86
2022/11/10 05:06:47;;;;;;;9.82;5.13;;;;;;;6.47;100.00;101987.88;5219232;28;20037;-85
2022/11/10 05:09:18;;;;;;;10.50;5.47;;;;;;;7.19;100.00;102085.75;5237856;28;20040;-83
2022/11/10 05:11:48;;;;;;;6.13;4.55;;;;;;;7.08;100.00;102077.25;5238420;28;20052;-85
2022/11/10 05:14:18;;;;;;;5.72;4.85;;;;;;;7.05;100.00;102079.53;5237056;28;20017;-85
2022/11/10 05:16:49;;;;;;;10.60;5.38;;;;;;;7.09;100.00;102083.47;5219500;28;20028;-83
2022/11/10 05:19:19;;;;;;;7.20;5.85;;;;;;;6.49;100.00;101993.03;5235764;28;20080;-84
2022/11/10 05:21:49;;;;;;;13.50;4.78;;;;;;;7.03;100.00;102093.16;5236857;28;20025;-84
2022/11/10 05:24:20;;;;;;;5.82;4.88;;;;;;;7.06;100.00;102102.66;5236256;28;20025;-86
2022/11/10 05:26:50;;;;;;;8.05;5.65;;;;;;;6.85;100.00;102084.00;5236800;28;20021;-84
2022/11/10 05:29:20;;;;;;;5.85;4.50;;;;;;;6.56;100.00;102053.75;5219544;28;20079;-84
2022/11/10 05:31:51;;;;;;;14.65;5.38;;;;;;;6.97;100.00;102119.97;5237256;28;20029;-85
2022/11/10 05:34:22;;;;;;;6.95;5.32;;;;;;;6.57;100.00;102058.09;5236126;28;20105;-86
2022/11/10 05:36:52;;;;;;;7.55;5.13;;;;;;;6.05;100.00;101979.03;5236556;28;20021;-81
2022/11/10 05:39:22;;;;;;;11.55;5.55;;;;;;;6.42;100.00;102058.22;5218949;28;20450;-85
2022/11/10 05:41:53;;;;;;;15.57;5.55;;;;;;;6.15;100.00;102018.06;5219062;28;20024;-86
2022/11/10 05:44:23;;;;;;;10.77;5.82;;;;;;;6.17;100.00;102037.47;5207324;28;20048;-83
2022/11/10 05:46:53;;;;;;;7.65;5.13;;;;;;;5.80;100.00;101980.50;5209869;28;20227;-84
2022/11/10 05:49:26;;;;;;;12.68;5.88;;;;;;;6.75;100.00;102128.16;5237489;28;20051;-85
2022/11/10 05:51:56;;;;;;;10.18;6.95;;;;;;;6.69;100.00;102106.66;5237885;28;20025;-86
2022/11/10 05:54:26;;;;;;;10.07;6.15;;;;;;;6.71;100.00;102109.97;5235886;28;20081;-84
2022/11/10 05:56:57;;;;;;;18.23;6.93;;;;;;;6.32;100.00;102041.69;5240636;28;20053;-84
2022/11/10 05:59:27;;;;;;;14.05;5.13;;;;;;;6.10;100.00;102019.47;5243528;28;20048;-86
2022/11/10 06:01:57;;;;;;;8.45;5.72;;;;;;;6.12;100.00;102026.50;5243102;28;20033;-83
2022/11/10 06:04:28;;;;;;;9.75;4.68;;;;;;;6.71;100.00;102132.25;5241119;28;20021;-84
2022/11/10 06:06:58;;;;;;;12.35;5.22;;;;;;;6.56;100.00;102122.69;5240866;28;20040;-83
2022/11/10 06:09:29;;;;;;;7.05;4.63;;;;;;;5.75;100.00;102015.94;5241704;28;20130;-82
2022/11/10 06:12:03;;;;;;;9.05;5.85;;;;;;;6.63;100.00;102148.56;5224191;28;20025;-83
2022/11/10 06:14:33;;;;;;;8.60;5.70;;;;;;;5.97;100.00;102048.06;5240993;28;20021;-83
2022/11/10 06:17:03;;;;;;;9.55;5.22;;;;;;;6.16;100.00;102089.44;5227182;28;20021;-84
2022/11/10 06:19:34;;;;;;;20.10;4.95;;;;;;;5.69;100.00;102023.94;5240648;28;20031;-83
2022/11/10 06:22:07;;;;;;;17.63;4.72;;;;;;;6.20;100.00;102131.78;5238827;28;20033;-83
2022/11/10 06:24:38;;;;;;;6.47;5.88;;;;;;;6.51;100.00;102168.91;5212347;28;20016;-83
2022/11/10 06:27:21;;;;;;;14.43;5.65;;;;;;;6.49;100.00;102176.31;5237595;28;20043;-81
2022/11/10 06:29:52;;;;;;;10.93;6.53;;;;;;;6.04;100.00;102114.13;5238850;28;20016;-82
2022/11/10 06:32:22;;;;;;;10.77;5.82;;;;;;;6.24;100.00;102167.91;5238905;28;20031;-81
2022/11/10 06:34:53;;;;;;;3.85;3.47;;;;;;;6.42;100.00;102183.50;5237672;28;20017;-80
2022/11/10 06:37:23;;;;;;;16.77;5.38;;;;;;;6.26;100.00;102170.41;5238178;28;20032;-81
2022/11/10 06:39:53;;;;;;;11.60;5.28;;;;;;;6.18;100.00;102159.81;5238698;28;20202;-80
2022/11/10 06:42:24;;;;;;;11.52;5.18;;;;;;;6.29;100.00;102194.16;5220630;28;20024;-82
2022/11/10 06:44:57;;;;;;;8.63;6.25;;;;;;;6.27;100.00;102201.56;5226161;28;20087;-81
2022/11/10 06:47:28;;;;;;;12.70;6.53;;;;;;;5.95;100.00;102147.47;5200465;28;20033;-82
2022/11/10 06:49:59;;;;;;;13.40;5.47;;;;;;;6.28;100.00;102205.91;5219153;28;20344;-81
2022/11/10 06:52:30;;;;;;;15.38;6.05;;;;;;;5.56;100.00;102096.16;5220735;28;20113;-83
2022/11/10 06:55:00;;;;;;;9.70;6.15;;;;;;;6.24;100.00;102215.38;5208606;28;20044;-83
2022/11/10 06:57:38;;;;;;;6.93;5.85;;;;;;;5.85;100.00;102154.16;5246647;28;20021;-82
2022/11/10 07:00:09;;;;;;;10.10;5.85;;;;;;;6.31;100.00;102227.81;5228433;28;20086;-81
2022/11/10 07:02:40;;;;;;;12.07;6.75;;;;;;;6.31;100.00;102225.13;5229286;28;20032;-80
2022/11/10 07:05:10;;;;;;;12.93;4.57;;;;;;;6.34;100.00;102227.44;5221465;28;20021;-80
2022/11/10 07:07:41;;;;;;;13.35;6.82;;;;;;;6.37;100.00;102236.91;5239903;28;20090;-80
2022/11/10 07:10:11;;;;;;;11.88;6.55;;;;;;;6.33;100.00;102222.25;5218593;28;20028;-83
2022/11/10 07:12:41;;;;;;;10.73;6.80;;;;;;;5.72;100.00;102130.75;5235472;28;20029;-83
2022/11/10 07:15:12;;;;;;;15.43;7.55;;;;;;;6.36;100.00;102237.94;5234898;28;20172;-83
2022/11/10 07:17:42;;;;;;;15.63;6.88;;;;;;;6.41;100.00;102232.81;5235139;28;20489;-83
2022/11/10 07:20:12;;;;;;;15.32;6.95;;;;;;;6.41;100.00;102236.34;5235852;28;20029;-80
2022/11/10 07:22:43;;;;;;;13.93;4.78;;;;;;;6.47;100.00;102237.41;5234984;28;20101;-83
2022/11/10 07:25:13;;;;;;;17.42;6.13;;;;;;;6.57;100.00;102250.50;5217634;28;20442;-84
2022/11/10 07:27:44;;;;;;;11.85;6.10;;;;;;;6.60;100.00;102256.31;5263239;22;21412;-71
2022/11/10 07:30:14;;;;;;;6.22;5.45;;;;;;;6.62;100.00;102264.16;5205254;28;20045;-72
2022/11/10 07:32:45;;;;;;;14.48;6.90;;;;;;;6.67;100.00;102275.13;5188859;28;20168;-72
2022/11/10 07:35:15;;;;;;;8.25;6.15;;;;;;;6.67;100.00;102286.69;5188047;28;20018;-72
2022/11/10 07:37:46;;;;;;;9.23;7.78;;;;;;;6.71;100.00;102287.13;5188795;28;20028;-72
2022/11/10 07:40:16;;;;;;;12.13;6.95;;;;;;;6.73;100.00;102301.19;5188329;28;20036;-72
2022/11/10 07:42:47;;;;;;;16.77;7.72;;;;;;;6.55;100.00;102255.22;5188641;28;20030;-71
2022/11/10 07:45:17;;;;;;;28.52;7.93;;;;;;;6.74;100.00;102282.22;5187874;28;20112;-72
2022/11/10 07:47:49;;;;;;;11.25;5.88;;;;;;;6.91;100.00;102295.34;5187549;28;20043;-72
2022/11/10 07:50:19;;;;;;;11.75;5.95;;;;;;;6.94;100.00;102292.25;5188441;28;20485;-72
2022/11/10 07:52:50;;;;;;;7.22;6.40;;;;;;;6.99;100.00;102287.13;5188613;28;20119;-72
2022/11/10 07:55:20;;;;;;;21.67;7.28;;;;;;;7.03;100.00;102296.44;5187910;28;20033;-72
2022/11/10 07:57:56;;;;;;;12.05;6.47;;;;;;;6.90;100.00;102281.09;5185939;28;20490;-72
2022/11/10 08:00:27;;;;;;;13.80;5.78;;;;;;;7.04;100.00;102295.41;5188033;28;20040;-72
2022/11/10 08:03:05;;;;;;;8.32;7.07;;;;;;;7.17;100.00;102308.09;5187914;28;20025;-72
2022/11/10 08:05:35;;;;;;;6.22;5.63;;;;;;;7.27;100.00;102308.56;5185715;28;20469;-72
2022/11/10 08:08:07;;;;;;;9.05;6.00;;;;;;;7.31;100.00;102310.66;5188754;28;20524;-71
2022/11/10 08:10:39;;;;;;;14.98;6.50;;;;;;;7.22;100.00;102293.03;5188710;28;20018;-71
2022/11/10 08:13:11;;;;;;;17.13;6.60;;;;;;;7.41;100.00;102311.13;5188469;28;20029;-72
2022/11/10 08:15:42;;;;;;;10.85;6.80;;;;;;;7.53;100.00;102316.75;5187866;28;20017;-72
2022/11/10 08:18:19;;;;;;;18.13;5.75;;;;;;;7.49;100.00;102307.44;5188368;28;20029;-71
2022/11/10 08:20:50;;;;;;;8.55;5.60;;;;;;;7.62;100.00;102331.69;5186692;28;20378;-71
2022/11/10 08:23:20;;;;;;;6.43;5.30;;;;;;;7.61;100.00;102334.56;5187654;28;20039;-72
2022/11/10 08:25:52;;;;;;;10.93;7.60;;;;;;;7.71;100.00;102346.63;5187288;28;20551;-72
2022/11/10 08:28:22;;;;;;;16.45;5.65;;;;;;;7.76;100.00;102346.03;5187619;28;20037;-71
2022/11/10 08:30:53;;;;;;;15.88;6.18;;;;;;;7.69;100.00;102323.66;5187369;28;20604;-72
2022/11/10 08:33:23;;;;;;;14.43;5.78;;;;;;;7.90;100.00;102347.72;5187045;28;20047;-72
2022/11/10 08:35:53;;;;;;;7.50;6.53;;;;;;;7.88;100.00;102322.88;5187874;28;20025;-71
2022/11/10 08:38:24;;;;;;;12.43;6.72;;;;;;;8.01;100.00;102333.69;5187516;28;20389;-71
2022/11/10 08:40:56;;;;;;;5.25;4.75;;;;;;;8.12;100.00;102338.47;5187643;28;20505;-71
2022/11/10 08:43:27;;;;;;;14.30;5.70;;;;;;;8.20;100.00;102342.84;5199625;28;20530;-71
2022/11/10 08:45:57;;;;;;;16.67;6.38;;;;;;;8.15;100.00;102339.91;5207843;28;20108;-72
2022/11/10 08:48:28;;;;;;;9.95;6.40;;;;;;;8.19;100.00;102345.72;5208191;28;20051;-72
2022/11/10 08:51:00;;;;;;;16.23;8.27;;;;;;;8.28;100.00;102347.19;5208455;28;20025;-71
2022/11/10 08:53:30;;;;;;;9.18;6.38;;;;;;;8.41;100.00;102353.44;5208021;28;20107;-71
2022/11/10 08:56:00;;;;;;;16.13;7.53;;;;;;;8.51;100.00;102365.69;5208858;28;20043;-71
2022/11/10 08:58:31;;;;;;;11.15;6.13;;;;;;;8.45;100.00;102343.09;5227697;28;20447;-72
2022/11/10 09:01:01;;;;;;;7.45;5.80;;;;;;;8.59;100.00;102374.41;5210079;28;20507;-71
2022/11/10 09:03:32;;;;;;;7.38;5.85;;;;;;;8.72;100.00;102374.41;5208311;28;20480;-72
2022/11/10 09:06:03;;;;;;;10.40;6.35;;;;;;;8.79;100.00;102372.53;5207990;28;20028;-72
2022/11/10 09:08:33;;;;;;;11.18;6.15;;;;;;;8.88;100.00;102375.88;5226080;28;20118;-71
2022/11/10 09:11:04;;;;;;;22.00;5.88;;;;;;;8.95;100.00;102367.78;5207252;28;20113;-69
2022/11/10 09:13:34;;;;;;;19.33;6.57;;;;;;;8.97;100.00;102355.75;5207218;28;20071;-71
2022/11/10 09:16:05;;;;;;;23.52;7.28;;;;;;;9.17;100.00;102380.00;5205778;28;20305;-70
2022/11/10 09:18:35;;;;;;;13.98;5.15;;;;;;;9.15;100.00;102373.97;5207413;28;20017;-69
2022/11/10 09:21:10;;;;;;;7.47;5.53;;;;;;;9.35;100.00;102384.72;5207223;28;20025;-70
2022/11/10 09:23:41;;;;;;;6.53;5.93;;;;;;;9.38;100.00;102385.13;5206181;28;20069;-70
2022/11/10 09:26:11;;;;;;;21.77;7.10;;;;;;;9.46;100.00;102386.78;5206544;28;20036;-71
2022/11/10 09:28:41;;;;;;;12.68;6.13;;;;;;;9.58;100.00;102382.38;5224628;28;20115;-70
2022/11/10 09:31:12;;;;;;;7.45;6.47;;;;;;;9.67;100.00;102383.81;5206668;28;20025;-68
2022/11/10 09:33:42;;;;;;;7.72;5.20;;;;;;;9.83;100.00;102385.19;5209960;28;20383;-69
2022/11/10 09:36:13;;;;;;;20.23;5.63;;;;;;;9.93;100.00;102390.97;5209842;28;20472;-70
2022/11/10 09:38:43;;;;;;;10.60;5.53;;;;;;;10.04;100.00;102384.91;5210031;28;20426;-69
2022/11/10 09:41:14;;;;;;;17.05;6.40;;;;;;;10.07;100.00;102384.47;5210593;28;20033;-69
2022/11/10 09:44:07;;;;;;;9.80;5.15;;;;;;;10.21;100.00;102379.03;5228411;28;20025;-68
2022/11/10 09:46:49;;;;;;;7.80;4.68;;;;;;;10.32;100.00;102372.94;5210262;28;20453;-69
2022/11/10 09:49:39;;;;;;;13.07;6.65;;;;;;;10.39;100.00;102365.63;5228758;28;20021;-69
2022/11/10 09:52:11;;;;;;;6.18;4.68;;;;;;;10.50;100.00;102367.63;5228713;28;20036;-72
2022/11/10 09:54:47;;;;;;;15.25;6.18;;;;;;;10.57;100.00;102357.59;5210370;28;20025;-71
2022/11/10 09:57:23;;;;;;;12.25;5.30;;;;;;;10.66;100.00;102352.75;5210623;28;20155;-72
2022/11/10 09:59:53;;;;;;;4.47;4.05;;;;;;;10.69;100.00;102333.38;5210346;28;20048;-68
2022/11/10 10:02:49;;;;;;;13.98;5.20;;;;;;;10.92;100.00;102368.75;5210500;28;20060;-69
2022/11/10 10:05:50;;;;;;;5.18;4.22;;;;;;;11.02;100.00;102362.81;5210333;28;20061;-69
2022/11/10 10:08:33;;;;;;;9.82;4.05;;;;;;;11.13;100.00;102368.34;5210733;28;20029;-70
2022/11/10 10:11:12;;;;;;;9.70;4.43;;;;;;;11.28;100.00;102359.84;5210000;28;20111;-69
2022/11/10 10:13:46;;;;;;;12.40;4.07;;;;;;;11.41;100.00;102365.13;5209699;28;20041;-69
2022/11/10 10:16:53;;;;;;;11.10;4.60;;;;;;;11.53;100.00;102359.00;5210255;28;20270;-67
2022/11/10 10:19:34;;;;;;;7.25;3.38;;;;;;;11.66;100.00;102366.94;5205269;28;20040;-69
2022/11/10 10:22:31;;;;;;;7.03;4.57;;;;;;;11.81;100.00;102376.38;5228096;28;20028;-69
2022/11/10 10:25:12;;;;;;;5.03;3.20;;;;;;;11.90;100.00;102379.56;5209347;28;20033;-70
2022/11/10 10:27:45;;;;;;;3.40;3.20;;;;;;;11.97;100.00;102372.19;5209807;28;20025;-69
2022/11/10 10:30:18;;;;;;;11.02;5.60;;;;;;;11.94;100.00;102364.53;5209915;28;20025;-69
2022/11/10 10:32:59;;;;;;;6.72;3.90;;;;;;;12.06;100.00;102378.13;5209770;28;20021;-69
2022/11/10 10:35:30;;;;;;;10.93;4.60;;;;;;;12.16;100.00;102370.25;5209493;28;20065;-68
2022/11/10 10:38:03;;;;;;;3.40;3.10;;;;;;;12.38;100.00;102394.97;5209596;28;20094;-69
2022/11/10 10:40:34;;;;;;;9.85;4.28;;;;;;;12.49;100.00;102394.19;5209625;28;20056;-70
2022/11/10 10:43:04;;;;;;;17.58;4.63;;;;;;;12.59;100.00;102408.00;5209298;28;20431;-71
2022/11/10 10:45:40;;;;;;;11.60;3.42;;;;;;;12.72;100.00;102415.91;5227211;28;20043;-69
2022/11/10 10:48:29;;;;;;;10.07;4.25;;;;;;;12.79;100.00;102411.22;5209808;28;20459;-68
2022/11/10 10:50:59;;;;;;;7.30;4.03;;;;;;;12.84;100.00;102419.47;5209610;28;20362;-69
2022/11/10 10:53:30;;;;;;;5.82;4.75;;;;;;;12.82;100.00;102390.94;5209344;28;20017;-68
2022/11/10 10:56:16;;;;;;;7.40;5.35;;;;;;;13.21;100.00;102424.75;5209640;28;20029;-68
2022/11/10 10:58:55;;;;;;;4.78;3.72;;;;;;;13.16;100.00;102411.06;5209436;28;20515;-72
2022/11/10 11:01:30;;;;;;;6.28;4.72;;;;;;;13.39;100.00;102438.19;5209216;28;20476;-70
2022/11/10 11:04:24;;;;;;;5.68;3.80;;;;;;;13.48;100.00;102442.22;5209120;28;20029;-68
2022/11/10 11:07:04;;;;;;;4.63;4.25;;;;;;;13.62;100.00;102447.38;5208907;28;20029;-69
2022/11/10 11:09:39;;;;;;;;;;;;;;;13.72;100.00;102448.44;5209417;28;20113;-69
2022/11/10 11:12:26;;;;;;;9.15;4.45;;;;;;;13.87;100.00;102450.63;5209152;28;19909;-68
2022/11/10 11:15:17;;;;;;;4.60;4.20;;;;;;;14.01;100.00;102440.34;5209285;28;20029;-70
2022/11/10 11:17:56;;;;;;;10.65;5.13;;;;;;;13.98;100.00;102424.53;5209295;28;20035;-68
2022/11/10 11:20:54;;;;;;;9.73;4.05;;;;;;;14.08;100.00;102428.28;5209390;28;20032;-69
2022/11/10 11:23:31;;;;;;;6.97;3.80;;;;;;;14.03;100.00;102421.91;5208648;28;20047;-69
2022/11/10 11:26:17;;;;;;;4.78;3.65;;;;;;;14.02;100.00;102431.13;5226170;28;20070;-68
2022/11/10 11:29:07;;;;;;;5.07;3.13;;;;;;;14.06;100.00;102432.31;5208424;28;20021;-68
2022/11/10 11:31:53;;;;;;;4.63;3.33;;;;;;;14.13;100.00;102433.84;5226367;28;20029;-70
2022/11/10 11:35:06;;;;;;;5.55;3.80;;;;;;;14.27;100.00;102438.97;5226288;28;20426;-69
2022/11/10 11:38:05;;;;;;;4.43;3.38;;;;;;;14.25;100.00;102438.38;5208168;28;20032;-68
2022/11/10 11:41:03;;;;;;;4.63;3.08;;;;;;;14.24;100.00;102445.72;5216773;28;20086;-68
2022/11/10 11:43:52;;;;;;;4.22;3.85;;;;;;;14.12;100.00;102451.19;5226157;28;20036;-72
2022/11/10 11:46:58;;;;;;;11.18;4.88;;;;;;;14.01;100.00;102470.22;5207846;28;20025;-68
2022/11/10 11:49:48;;;;;;;10.57;3.45;;;;;;;13.95;100.00;102458.44;5207687;28;20039;-68
2022/11/10 11:52:34;;;;;;;9.00;5.75;;;;;;;13.95;100.00;102463.84;5208066;28;20028;-68
2022/11/10 11:55:19;;;;;;;5.05;3.15;;;;;;;13.88;100.00;102465.88;5206901;28;20097;-69
2022/11/10 11:57:59;;;;;;;2.78;2.58;;;;;;;13.85;100.00;102466.38;5192513;28;20117;-68
2022/11/10 12:00:41;;;;;;;4.18;3.83;;;;;;;13.93;100.00;102473.31;5187227;28;20452;-68